sensor_id;sensor_type;location;lat;lon;timestamp;pressure;altitude;pressure_sealevel;temperature;humidity
19096;BME280;9680;52.520;13.332;2022-07-23T00:00:07;101448.22;;;19.47;64.31
19096;BME280;9680;52.520;13.332;2022-07-23T00:02:33;101442.28;;;19.43;64.39
19096;BME280;9680;52.520;13.332;2022-07-23T00:04:59;101444.09;;;19.43;64.58
19096;BME280;9680;52.520;13.332;2022-07-23T00:07:24;101438.81;;;19.43;64.81
19096;BME280;9680;52.520;13.332;2022-07-23T00:09:50;101430.13;;;19.41;64.56
19096;BME280;9680;52.520;13.332;2022-07-23T00:12:15;101423.16;;;19.40;64.92
19096;BME280;9680;52.520;13.332;2022-07-23T00:14:41;101425.59;;;19.43;64.91
19096;BME280;9680;52.520;13.332;2022-07-23T00:17:06;101428.03;;;19.46;64.75
19096;BME280;9680;52.520;13.332;2022-07-23T00:19:32;101428.59;;;19.51;64.58
19096;BME280;9680;52.520;13.332;2022-07-23T00:21:57;101423.66;;;19.59;64.34
19096;BME280;9680;52.520;13.332;2022-07-23T00:24:23;101423.25;;;19.65;64.04
19096;BME280;9680;52.520;13.332;2022-07-23T00:26:48;101418.16;;;19.62;64.21
19096;BME280;9680;52.520;13.332;2022-07-23T00:29:14;101405.34;;;19.56;64.11
19096;BME280;9680;52.520;13.332;2022-07-23T00:31:39;101416.53;;;19.47;64.26
19096;BME280;9680;52.520;13.332;2022-07-23T00:34:05;101422.31;;;19.39;64.53
19096;BME280;9680;52.520;13.332;2022-07-23T00:36:30;101419.09;;;19.34;64.48
19096;BME280;9680;52.520;13.332;2022-07-23T00:38:58;101414.69;;;19.34;64.45
19096;BME280;9680;52.520;13.332;2022-07-23T00:41:24;101425.53;;;19.30;64.41
19096;BME280;9680;52.520;13.332;2022-07-23T00:43:49;101423.00;;;19.28;64.51
19096;BME280;9680;52.520;13.332;2022-07-23T00:46:22;101432.06;;;19.24;64.56
19096;BME280;9680;52.520;13.332;2022-07-23T00:48:48;101429.53;;;19.23;64.46
19096;BME280;9680;52.520;13.332;2022-07-23T00:51:17;101415.03;;;19.15;65.12
19096;BME280;9680;52.520;13.332;2022-07-23T00:53:44;101419.81;;;19.09;64.86
19096;BME280;9680;52.520;13.332;2022-07-23T00:56:10;101425.63;;;19.01;65.21
19096;BME280;9680;52.520;13.332;2022-07-23T00:58:36;101428.59;;;18.95;65.33
19096;BME280;9680;52.520;13.332;2022-07-23T01:01:02;101439.72;;;18.85;65.87
19096;BME280;9680;52.520;13.332;2022-07-23T01:03:27;101436.63;;;18.78;65.94
19096;BME280;9680;52.520;13.332;2022-07-23T01:05:53;101432.88;;;18.68;66.25
19096;BME280;9680;52.520;13.332;2022-07-23T01:08:19;101428.78;;;18.62;66.46
19096;BME280;9680;52.520;13.332;2022-07-23T01:10:47;101434.44;;;18.56;66.85
19096;BME280;9680;52.520;13.332;2022-07-23T01:13:13;101433.69;;;18.54;67.15
19096;BME280;9680;52.520;13.332;2022-07-23T01:15:39;101427.84;;;18.49;67.21
19096;BME280;9680;52.520;13.332;2022-07-23T01:18:05;101415.78;;;18.45;67.44
19096;BME280;9680;52.520;13.332;2022-07-23T01:20:33;101422.94;;;18.43;67.60
19096;BME280;9680;52.520;13.332;2022-07-23T01:22:59;101421.63;;;18.36;67.82
19096;BME280;9680;52.520;13.332;2022-07-23T01:25:25;101422.47;;;18.36;67.75
19096;BME280;9680;52.520;13.332;2022-07-23T01:27:56;101414.72;;;18.33;67.80
19096;BME280;9680;52.520;13.332;2022-07-23T01:30:23;101410.69;;;18.27;68.12
19096;BME280;9680;52.520;13.332;2022-07-23T01:32:48;101408.41;;;18.21;68.33
19096;BME280;9680;52.520;13.332;2022-07-23T01:35:14;101405.00;;;18.19;68.99
19096;BME280;9680;52.520;13.332;2022-07-23T01:37:42;101405.19;;;18.16;69.09
19096;BME280;9680;52.520;13.332;2022-07-23T01:40:09;101412.16;;;18.17;69.38
19096;BME280;9680;52.520;13.332;2022-07-23T01:42:35;101404.53;;;18.12;69.14
19096;BME280;9680;52.520;13.332;2022-07-23T01:45:03;101402.34;;;18.04;69.41
19096;BME280;9680;52.520;13.332;2022-07-23T01:47:29;101404.38;;;17.99;69.77
19096;BME280;9680;52.520;13.332;2022-07-23T01:49:55;101403.72;;;17.96;69.81
19096;BME280;9680;52.520;13.332;2022-07-23T01:52:29;101404.75;;;17.93;69.89
19096;BME280;9680;52.520;13.332;2022-07-23T01:54:54;101395.91;;;17.94;70.31
19096;BME280;9680;52.520;13.332;2022-07-23T01:57:20;101390.63;;;17.94;70.60
19096;BME280;9680;52.520;13.332;2022-07-23T01:59:46;101407.94;;;17.98;70.43
19096;BME280;9680;52.520;13.332;2022-07-23T02:02:12;101404.38;;;17.99;70.43
19096;BME280;9680;52.520;13.332;2022-07-23T02:04:37;101399.09;;;17.99;70.54
19096;BME280;9680;52.520;13.332;2022-07-23T02:07:04;101398.47;;;17.96;70.75
19096;BME280;9680;52.520;13.332;2022-07-23T02:09:29;101393.94;;;17.98;70.64
19096;BME280;9680;52.520;13.332;2022-07-23T02:11:56;101385.28;;;17.96;70.79
19096;BME280;9680;52.520;13.332;2022-07-23T02:14:21;101395.91;;;17.94;70.68
19096;BME280;9680;52.520;13.332;2022-07-23T02:16:47;101385.72;;;17.88;71.12
19096;BME280;9680;52.520;13.332;2022-07-23T02:19:14;101395.41;;;17.87;71.13
19096;BME280;9680;52.520;13.332;2022-07-23T02:21:39;101389.66;;;17.81;71.82
19096;BME280;9680;52.520;13.332;2022-07-23T02:24:05;101385.03;;;17.84;71.38
19096;BME280;9680;52.520;13.332;2022-07-23T02:26:31;101390.91;;;17.89;71.42
19096;BME280;9680;52.520;13.332;2022-07-23T02:29:03;101390.63;;;17.94;71.18
19096;BME280;9680;52.520;13.332;2022-07-23T02:31:29;101392.31;;;17.95;71.01
19096;BME280;9680;52.520;13.332;2022-07-23T02:33:56;101392.31;;;17.95;71.01
19096;BME280;9680;52.520;13.332;2022-07-23T02:36:22;101392.50;;;17.92;71.01
19096;BME280;9680;52.520;13.332;2022-07-23T02:38:49;101384.78;;;17.89;71.17
19096;BME280;9680;52.520;13.332;2022-07-23T02:41:14;101394.75;;;17.84;71.40
19096;BME280;9680;52.520;13.332;2022-07-23T02:43:41;101402.06;;;17.79;71.22
19096;BME280;9680;52.520;13.332;2022-07-23T02:46:06;101400.91;;;17.68;72.06
19096;BME280;9680;52.520;13.332;2022-07-23T02:48:33;101406.53;;;17.62;72.09
19096;BME280;9680;52.520;13.332;2022-07-23T02:50:58;101407.13;;;17.67;72.03
19096;BME280;9680;52.520;13.332;2022-07-23T02:53:29;101411.69;;;17.64;71.94
19096;BME280;9680;52.520;13.332;2022-07-23T02:55:55;101407.53;;;17.59;72.04
19096;BME280;9680;52.520;13.332;2022-07-23T02:58:21;101400.69;;;17.57;71.67
19096;BME280;9680;52.520;13.332;2022-07-23T03:00:47;101406.03;;;17.55;71.85
19096;BME280;9680;52.520;13.332;2022-07-23T03:03:12;101406.19;;;17.52;71.93
19096;BME280;9680;52.520;13.332;2022-07-23T03:05:38;101395.41;;;17.57;72.44
19096;BME280;9680;52.520;13.332;2022-07-23T03:08:04;101401.34;;;17.60;71.88
19096;BME280;9680;52.520;13.332;2022-07-23T03:10:33;101402.59;;;17.69;71.90
19096;BME280;9680;52.520;13.332;2022-07-23T03:12:58;101404.31;;;17.70;71.43
19096;BME280;9680;52.520;13.332;2022-07-23T03:15:24;101399.88;;;17.71;71.23
19096;BME280;9680;52.520;13.332;2022-07-23T03:17:49;101413.16;;;17.69;71.24
19096;BME280;9680;52.520;13.332;2022-07-23T03:20:15;101415.03;;;17.67;71.21
19096;BME280;9680;52.520;13.332;2022-07-23T03:22:41;101412.75;;;17.61;71.08
19096;BME280;9680;52.520;13.332;2022-07-23T03:25:07;101414.09;;;17.52;70.95
19096;BME280;9680;52.520;13.332;2022-07-23T03:27:34;101412.75;;;17.45;71.24
19096;BME280;9680;52.520;13.332;2022-07-23T03:30:00;101418.44;;;17.37;71.25
19096;BME280;9680;52.520;13.332;2022-07-23T03:32:26;101422.09;;;17.35;70.86
19096;BME280;9680;52.520;13.332;2022-07-23T03:34:52;101420.91;;;17.40;70.69
19096;BME280;9680;52.520;13.332;2022-07-23T03:37:18;101428.28;;;17.50;69.77
19096;BME280;9680;52.520;13.332;2022-07-23T03:39:46;101434.06;;;17.56;68.44
19096;BME280;9680;52.520;13.332;2022-07-23T03:42:12;101436.28;;;17.64;68.03
19096;BME280;9680;52.520;13.332;2022-07-23T03:44:37;101439.75;;;17.65;66.89
19096;BME280;9680;52.520;13.332;2022-07-23T03:47:05;101440.59;;;17.65;66.05
19096;BME280;9680;52.520;13.332;2022-07-23T03:49:32;101440.50;;;17.67;66.19
19096;BME280;9680;52.520;13.332;2022-07-23T03:51:58;101444.75;;;17.69;65.58
19096;BME280;9680;52.520;13.332;2022-07-23T03:54:24;101458.19;;;17.65;64.10
19096;BME280;9680;52.520;13.332;2022-07-23T03:56:49;101462.84;;;17.59;65.08
19096;BME280;9680;52.520;13.332;2022-07-23T03:59:15;101464.13;;;17.68;65.12
19096;BME280;9680;52.520;13.332;2022-07-23T04:01:41;101453.50;;;17.70;64.22
19096;BME280;9680;52.520;13.332;2022-07-23T04:04:06;101441.38;;;17.67;63.87
19096;BME280;9680;52.520;13.332;2022-07-23T04:06:35;101455.94;;;17.73;63.68
19096;BME280;9680;52.520;13.332;2022-07-23T04:09:01;101451.44;;;17.75;63.11
19096;BME280;9680;52.520;13.332;2022-07-23T04:11:28;101422.75;;;17.70;63.19
19096;BME280;9680;52.520;13.332;2022-07-23T04:13:54;101425.56;;;17.67;63.13
19096;BME280;9680;52.520;13.332;2022-07-23T04:16:20;101409.75;;;17.67;63.05
19096;BME280;9680;52.520;13.332;2022-07-23T04:18:46;101407.88;;;17.69;63.46
19096;BME280;9680;52.520;13.332;2022-07-23T04:21:15;101418.13;;;17.74;62.89
19096;BME280;9680;52.520;13.332;2022-07-23T04:23:41;101436.97;;;17.82;62.86
19096;BME280;9680;52.520;13.332;2022-07-23T04:26:06;101424.50;;;17.86;62.71
19096;BME280;9680;52.520;13.332;2022-07-23T04:28:32;101413.75;;;17.89;62.30
19096;BME280;9680;52.520;13.332;2022-07-23T04:30:57;101386.06;;;17.82;62.12
19096;BME280;9680;52.520;13.332;2022-07-23T04:33:23;101388.56;;;17.69;64.04
19096;BME280;9680;52.520;13.332;2022-07-23T04:35:52;101412.50;;;17.01;68.92
19096;BME280;9680;52.520;13.332;2022-07-23T04:38:19;101428.75;;;16.58;72.93
19096;BME280;9680;52.520;13.332;2022-07-23T04:40:45;101446.50;;;16.37;74.58
19096;BME280;9680;52.520;13.332;2022-07-23T04:43:11;101464.06;;;16.19;74.38
19096;BME280;9680;52.520;13.332;2022-07-23T04:45:43;101469.78;;;16.10;74.67
19096;BME280;9680;52.520;13.332;2022-07-23T04:48:09;101456.88;;;16.05;75.19
19096;BME280;9680;52.520;13.332;2022-07-23T04:50:35;101460.97;;;16.11;76.30
19096;BME280;9680;52.520;13.332;2022-07-23T04:53:03;101471.72;;;16.24;77.45
19096;BME280;9680;52.520;13.332;2022-07-23T04:55:29;101471.41;;;16.30;77.01
19096;BME280;9680;52.520;13.332;2022-07-23T04:57:54;101464.91;;;16.20;76.03
19096;BME280;9680;52.520;13.332;2022-07-23T05:00:20;101470.06;;;16.21;77.00
19096;BME280;9680;52.520;13.332;2022-07-23T05:02:45;101469.16;;;16.22;77.72
19096;BME280;9680;52.520;13.332;2022-07-23T05:05:11;101454.94;;;16.26;78.03
19096;BME280;9680;52.520;13.332;2022-07-23T05:07:37;101449.16;;;16.02;79.50
19096;BME280;9680;52.520;13.332;2022-07-23T05:10:02;101441.59;;;15.77;80.58
19096;BME280;9680;52.520;13.332;2022-07-23T05:12:29;101438.56;;;15.48;81.57
19096;BME280;9680;52.520;13.332;2022-07-23T05:14:55;101444.13;;;15.41;83.29
19096;BME280;9680;52.520;13.332;2022-07-23T05:17:21;101454.19;;;15.51;83.30
19096;BME280;9680;52.520;13.332;2022-07-23T05:19:46;101442.47;;;15.58;83.15
19096;BME280;9680;52.520;13.332;2022-07-23T05:22:12;101436.78;;;15.67;84.06
19096;BME280;9680;52.520;13.332;2022-07-23T05:24:38;101439.50;;;15.83;84.17
19096;BME280;9680;52.520;13.332;2022-07-23T05:27:06;101432.38;;;15.85;83.29
19096;BME280;9680;52.520;13.332;2022-07-23T05:29:32;101429.41;;;15.93;83.95
19096;BME280;9680;52.520;13.332;2022-07-23T05:31:58;101435.06;;;16.03;83.57
19096;BME280;9680;52.520;13.332;2022-07-23T05:34:23;101442.41;;;16.14;82.68
19096;BME280;9680;52.520;13.332;2022-07-23T05:36:49;101440.56;;;16.16;82.64
19096;BME280;9680;52.520;13.332;2022-07-23T05:39:15;101448.91;;;16.24;82.75
19096;BME280;9680;52.520;13.332;2022-07-23T05:41:42;101447.06;;;16.26;82.10
19096;BME280;9680;52.520;13.332;2022-07-23T05:44:07;101451.75;;;16.37;82.54
19096;BME280;9680;52.520;13.332;2022-07-23T05:46:38;101455.94;;;16.41;82.14
19096;BME280;9680;52.520;13.332;2022-07-23T05:49:06;101459.63;;;16.55;82.13
19096;BME280;9680;52.520;13.332;2022-07-23T05:52:07;101462.72;;;16.63;82.01
19096;BME280;9680;52.520;13.332;2022-07-23T05:54:51;101476.81;;;16.62;81.66
19096;BME280;9680;52.520;13.332;2022-07-23T05:57:17;101475.00;;;16.63;82.89
19096;BME280;9680;52.520;13.332;2022-07-23T05:59:43;101472.84;;;16.71;83.02
19096;BME280;9680;52.520;13.332;2022-07-23T06:02:09;101483.97;;;16.76;83.10
19096;BME280;9680;52.520;13.332;2022-07-23T06:04:34;101491.84;;;16.76;83.17
19096;BME280;9680;52.520;13.332;2022-07-23T06:07:20;101470.03;;;16.74;83.61
19096;BME280;9680;52.520;13.332;2022-07-23T06:09:47;101459.44;;;16.76;83.47
19096;BME280;9680;52.520;13.332;2022-07-23T06:12:15;101447.91;;;16.78;82.94
19096;BME280;9680;52.520;13.332;2022-07-23T06:14:40;101438.91;;;16.82;82.94
19096;BME280;9680;52.520;13.332;2022-07-23T06:17:06;101429.75;;;16.73;82.25
19096;BME280;9680;52.520;13.332;2022-07-23T06:19:32;101437.47;;;16.77;82.72
19096;BME280;9680;52.520;13.332;2022-07-23T06:21:58;101445.09;;;16.81;83.26
19096;BME280;9680;52.520;13.332;2022-07-23T06:24:26;101444.00;;;16.85;83.83
19096;BME280;9680;52.520;13.332;2022-07-23T06:26:52;101448.97;;;16.92;83.74
19096;BME280;9680;52.520;13.332;2022-07-23T06:29:18;101453.97;;;16.96;83.69
19096;BME280;9680;52.520;13.332;2022-07-23T06:31:43;101454.59;;;17.01;83.57
19096;BME280;9680;52.520;13.332;2022-07-23T06:34:09;101449.09;;;17.06;83.53
19096;BME280;9680;52.520;13.332;2022-07-23T06:36:35;101436.44;;;17.13;83.53
19096;BME280;9680;52.520;13.332;2022-07-23T06:39:00;101428.13;;;17.21;83.08
19096;BME280;9680;52.520;13.332;2022-07-23T06:41:26;101426.97;;;17.26;82.93
19096;BME280;9680;52.520;13.332;2022-07-23T06:43:51;101425.09;;;17.28;81.84
19096;BME280;9680;52.520;13.332;2022-07-23T06:46:18;101421.75;;;17.25;81.08
19096;BME280;9680;52.520;13.332;2022-07-23T06:48:45;101420.06;;;17.24;81.28
19096;BME280;9680;52.520;13.332;2022-07-23T06:51:12;101408.59;;;17.25;81.46
19096;BME280;9680;52.520;13.332;2022-07-23T06:53:38;101413.16;;;17.21;81.76
19096;BME280;9680;52.520;13.332;2022-07-23T06:56:03;101409.47;;;17.25;81.63
19096;BME280;9680;52.520;13.332;2022-07-23T06:58:29;101412.50;;;17.34;80.71
19096;BME280;9680;52.520;13.332;2022-07-23T07:00:55;101416.50;;;17.25;80.57
19096;BME280;9680;52.520;13.332;2022-07-23T07:03:22;101414.97;;;17.37;80.90
19096;BME280;9680;52.520;13.332;2022-07-23T07:05:47;101411.72;;;17.47;79.96
19096;BME280;9680;52.520;13.332;2022-07-23T07:08:13;101432.13;;;17.60;79.88
19096;BME280;9680;52.520;13.332;2022-07-23T07:10:38;101449.50;;;17.79;80.27
19096;BME280;9680;52.520;13.332;2022-07-23T07:13:04;101453.47;;;18.02;80.34
19096;BME280;9680;52.520;13.332;2022-07-23T07:15:30;101453.81;;;18.26;80.08
19096;BME280;9680;52.520;13.332;2022-07-23T07:17:55;101462.41;;;18.44;78.99
19096;BME280;9680;52.520;13.332;2022-07-23T07:20:21;101472.69;;;18.49;78.20
19096;BME280;9680;52.520;13.332;2022-07-23T07:22:49;101465.44;;;18.53;77.38
19096;BME280;9680;52.520;13.332;2022-07-23T07:25:15;101476.41;;;18.61;77.77
19096;BME280;9680;52.520;13.332;2022-07-23T07:27:40;101479.13;;;18.74;77.93
19096;BME280;9680;52.520;13.332;2022-07-23T07:30:07;101470.38;;;18.88;77.15
19096;BME280;9680;52.520;13.332;2022-07-23T07:32:32;101469.91;;;18.96;75.97
19096;BME280;9680;52.520;13.332;2022-07-23T07:34:58;101459.06;;;19.00;75.41
19096;BME280;9680;52.520;13.332;2022-07-23T07:37:24;101459.25;;;18.97;75.11
19096;BME280;9680;52.520;13.332;2022-07-23T07:39:49;101462.06;;;18.94;74.59
19096;BME280;9680;52.520;13.332;2022-07-23T07:42:15;101463.00;;;18.93;74.46
19096;BME280;9680;52.520;13.332;2022-07-23T07:44:41;101453.03;;;18.98;74.29
19096;BME280;9680;52.520;13.332;2022-07-23T07:47:06;101450.41;;;18.98;73.88
19096;BME280;9680;52.520;13.332;2022-07-23T07:49:33;101448.31;;;18.89;73.96
19096;BME280;9680;52.520;13.332;2022-07-23T07:51:58;101441.31;;;18.88;73.80
19096;BME280;9680;52.520;13.332;2022-07-23T07:54:24;101427.84;;;18.78;74.64
19096;BME280;9680;52.520;13.332;2022-07-23T07:56:49;101426.50;;;18.85;74.79
19096;BME280;9680;52.520;13.332;2022-07-23T07:59:15;101432.28;;;18.92;74.30
19096;BME280;9680;52.520;13.332;2022-07-23T08:01:41;101425.28;;;18.91;74.02
19096;BME280;9680;52.520;13.332;2022-07-23T08:04:07;101430.22;;;18.83;74.23
19096;BME280;9680;52.520;13.332;2022-07-23T08:06:32;101439.16;;;18.80;75.26
19096;BME280;9680;52.520;13.332;2022-07-23T08:08:58;101433.78;;;18.96;74.80
19096;BME280;9680;52.520;13.332;2022-07-23T08:11:24;101442.75;;;19.08;74.18
19096;BME280;9680;52.520;13.332;2022-07-23T08:13:49;101444.53;;;19.08;73.09
19096;BME280;9680;52.520;13.332;2022-07-23T08:16:15;101434.72;;;19.10;72.85
19096;BME280;9680;52.520;13.332;2022-07-23T08:18:40;101429.53;;;19.23;73.03
19096;BME280;9680;52.520;13.332;2022-07-23T08:21:07;101424.41;;;19.34;72.70
19096;BME280;9680;52.520;13.332;2022-07-23T08:23:32;101425.59;;;19.43;69.99
19096;BME280;9680;52.520;13.332;2022-07-23T08:25:58;101421.88;;;19.32;68.31
19096;BME280;9680;52.520;13.332;2022-07-23T08:28:25;101428.69;;;19.49;69.05
19096;BME280;9680;52.520;13.332;2022-07-23T08:30:50;101437.13;;;19.69;68.43
19096;BME280;9680;52.520;13.332;2022-07-23T08:33:17;101433.53;;;19.83;68.33
19096;BME280;9680;52.520;13.332;2022-07-23T08:35:48;101424.94;;;19.94;67.24
19096;BME280;9680;52.520;13.332;2022-07-23T08:38:17;101427.22;;;19.86;66.74
19096;BME280;9680;52.520;13.332;2022-07-23T08:40:45;101424.38;;;19.89;66.81
19096;BME280;9680;52.520;13.332;2022-07-23T08:43:17;101434.41;;;19.84;65.12
19096;BME280;9680;52.520;13.332;2022-07-23T08:45:45;101436.59;;;19.91;65.63
19096;BME280;9680;52.520;13.332;2022-07-23T08:48:17;101434.19;;;20.14;65.12
19096;BME280;9680;52.520;13.332;2022-07-23T08:50:44;101434.69;;;20.06;63.21
19096;BME280;9680;52.520;13.332;2022-07-23T08:53:10;101435.63;;;20.05;63.74
19096;BME280;9680;52.520;13.332;2022-07-23T08:55:36;101429.31;;;20.21;63.56
19096;BME280;9680;52.520;13.332;2022-07-23T08:58:02;101426.34;;;20.13;62.89
19096;BME280;9680;52.520;13.332;2022-07-23T09:03:34;101417.59;;;20.25;63.07
19096;BME280;9680;52.520;13.332;2022-07-23T09:06:01;101428.91;;;20.27;61.73
19096;BME280;9680;52.520;13.332;2022-07-23T09:08:39;101440.34;;;20.41;62.10
19096;BME280;9680;52.520;13.332;2022-07-23T09:11:07;101441.81;;;20.45;61.47
19096;BME280;9680;52.520;13.332;2022-07-23T09:13:37;101443.63;;;20.57;61.78
19096;BME280;9680;52.520;13.332;2022-07-23T09:16:09;101441.38;;;20.77;62.35
19096;BME280;9680;52.520;13.332;2022-07-23T09:21:27;101432.94;;;21.22;60.24
19096;BME280;9680;52.520;13.332;2022-07-23T09:24:10;101438.75;;;21.51;59.88
19096;BME280;9680;52.520;13.332;2022-07-23T09:36:53;101453.47;;;21.80;57.59
19096;BME280;9680;52.520;13.332;2022-07-23T09:39:31;101455.63;;;21.75;57.31
19096;BME280;9680;52.520;13.332;2022-07-23T09:41:57;101456.88;;;21.58;57.04
19096;BME280;9680;52.520;13.332;2022-07-23T09:44:23;101460.25;;;21.35;57.88
19096;BME280;9680;52.520;13.332;2022-07-23T09:46:50;101447.66;;;21.26;57.78
19096;BME280;9680;52.520;13.332;2022-07-23T09:49:21;101450.53;;;21.23;57.88
19096;BME280;9680;52.520;13.332;2022-07-23T09:51:58;101444.06;;;21.27;57.54
19096;BME280;9680;52.520;13.332;2022-07-23T09:54:34;101448.56;;;21.38;57.61
19096;BME280;9680;52.520;13.332;2022-07-23T09:57:09;101452.53;;;21.57;57.20
19096;BME280;9680;52.520;13.332;2022-07-23T09:59:39;101454.44;;;21.55;56.25
19096;BME280;9680;52.520;13.332;2022-07-23T10:02:07;101467.69;;;21.55;56.54
19096;BME280;9680;52.520;13.332;2022-07-23T10:04:44;101464.59;;;21.85;55.66
19096;BME280;9680;52.520;13.332;2022-07-23T10:07:10;101475.59;;;21.92;55.65
19096;BME280;9680;52.520;13.332;2022-07-23T10:09:54;101471.38;;;22.25;55.49
19096;BME280;9680;52.520;13.332;2022-07-23T10:12:43;101467.88;;;22.36;55.30
19096;BME280;9680;52.520;13.332;2022-07-23T10:15:12;101466.13;;;22.48;55.03
19096;BME280;9680;52.520;13.332;2022-07-23T10:17:38;101476.53;;;22.26;54.22
19096;BME280;9680;52.520;13.332;2022-07-23T10:20:04;101475.03;;;22.00;55.27
19096;BME280;9680;52.520;13.332;2022-07-23T10:23:00;101464.25;;;22.25;54.99
19096;BME280;9680;52.520;13.332;2022-07-23T10:28:51;101468.38;;;22.41;54.91
19096;BME280;9680;52.520;13.332;2022-07-23T10:31:31;101469.75;;;22.47;55.65
19096;BME280;9680;52.520;13.332;2022-07-23T10:36:52;101468.56;;;22.74;54.37
19096;BME280;9680;52.520;13.332;2022-07-23T10:39:31;101471.22;;;22.74;54.29
19096;BME280;9680;52.520;13.332;2022-07-23T10:42:13;101475.09;;;22.92;53.96
19096;BME280;9680;52.520;13.332;2022-07-23T10:44:41;101478.81;;;23.01;51.65
19096;BME280;9680;52.520;13.332;2022-07-23T10:47:09;101479.44;;;22.93;51.55
19096;BME280;9680;52.520;13.332;2022-07-23T10:49:54;101480.75;;;22.99;52.17
19096;BME280;9680;52.520;13.332;2022-07-23T10:52:39;101481.59;;;23.11;51.65
19096;BME280;9680;52.520;13.332;2022-07-23T10:57:47;101468.72;;;23.62;50.61
19096;BME280;9680;52.520;13.332;2022-07-23T11:00:15;101471.25;;;23.84;50.68
19096;BME280;9680;52.520;13.332;2022-07-23T11:02:44;101468.41;;;23.76;49.75
19096;BME280;9680;52.520;13.332;2022-07-23T11:05:13;101465.78;;;23.65;50.02
19096;BME280;9680;52.520;13.332;2022-07-23T11:11:25;101469.69;;;23.61;49.84
19096;BME280;9680;52.520;13.332;2022-07-23T11:34:45;101449.69;;;24.41;47.10
19096;BME280;9680;52.520;13.332;2022-07-23T11:37:39;101451.13;;;24.77;46.54
19096;BME280;9680;52.520;13.332;2022-07-23T11:40:08;101439.03;;;25.04;46.57
19096;BME280;9680;52.520;13.332;2022-07-23T11:42:36;101444.81;;;25.19;45.34
19096;BME280;9680;52.520;13.332;2022-07-23T11:45:03;101440.19;;;25.21;45.53
19096;BME280;9680;52.520;13.332;2022-07-23T11:47:28;101448.72;;;25.24;44.77
19096;BME280;9680;52.520;13.332;2022-07-23T11:49:56;101439.59;;;25.17;44.99
19096;BME280;9680;52.520;13.332;2022-07-23T11:52:26;101434.19;;;25.48;45.59
19096;BME280;9680;52.520;13.332;2022-07-23T11:55:04;101443.47;;;25.83;44.46
19096;BME280;9680;52.520;13.332;2022-07-23T11:57:35;101440.06;;;26.01;44.43
19096;BME280;9680;52.520;13.332;2022-07-23T12:00:10;101437.84;;;25.86;43.39
19096;BME280;9680;52.520;13.332;2022-07-23T12:02:45;101440.66;;;25.75;43.52
19096;BME280;9680;52.520;13.332;2022-07-23T12:05:15;101438.28;;;25.72;43.17
19096;BME280;9680;52.520;13.332;2022-07-23T12:07:42;101435.91;;;25.69;43.54
19096;BME280;9680;52.520;13.332;2022-07-23T12:10:18;101434.03;;;25.99;44.15
19096;BME280;9680;52.520;13.332;2022-07-23T12:12:58;101429.44;;;26.39;42.83
19096;BME280;9680;52.520;13.332;2022-07-23T12:15:26;101436.88;;;26.45;43.20
19096;BME280;9680;52.520;13.332;2022-07-23T12:17:52;101434.75;;;26.58;41.15
19096;BME280;9680;52.520;13.332;2022-07-23T12:20:25;101425.66;;;26.41;40.72
19096;BME280;9680;52.520;13.332;2022-07-23T12:22:55;101430.91;;;26.23;41.97
19096;BME280;9680;52.520;13.332;2022-07-23T12:25:24;101427.25;;;26.14;42.53
19096;BME280;9680;52.520;13.332;2022-07-23T12:28:20;101441.16;;;26.28;42.52
19096;BME280;9680;52.520;13.332;2022-07-23T12:30:46;101427.19;;;26.44;42.26
19096;BME280;9680;52.520;13.332;2022-07-23T12:33:15;101438.25;;;26.59;41.19
19096;BME280;9680;52.520;13.332;2022-07-23T12:35:48;101437.84;;;26.54;41.21
19096;BME280;9680;52.520;13.332;2022-07-23T12:38:21;101427.91;;;26.74;41.46
19096;BME280;9680;52.520;13.332;2022-07-23T12:40:51;101421.22;;;27.16;41.35
19096;BME280;9680;52.520;13.332;2022-07-23T12:43:28;101429.72;;;27.29;40.89
19096;BME280;9680;52.520;13.332;2022-07-23T12:48:25;101427.75;;;27.50;40.10
19096;BME280;9680;52.520;13.332;2022-07-23T12:50:56;101435.59;;;27.33;40.12
19096;BME280;9680;52.520;13.332;2022-07-23T12:53:30;101431.53;;;27.11;39.41
19096;BME280;9680;52.520;13.332;2022-07-23T12:56:03;101436.34;;;26.69;40.09
19096;BME280;9680;52.520;13.332;2022-07-23T12:59:24;101435.34;;;26.42;40.98
19096;BME280;9680;52.520;13.332;2022-07-23T13:01:31;101432.97;;;26.77;40.92
19096;BME280;9680;52.520;13.332;2022-07-23T13:04:13;101432.09;;;26.86;40.50
19096;BME280;9680;52.520;13.332;2022-07-23T13:07:05;101418.16;;;26.55;41.34
19096;BME280;9680;52.520;13.332;2022-07-23T13:09:33;101423.50;;;26.55;41.11
19096;BME280;9680;52.520;13.332;2022-07-23T13:11:59;101436.13;;;26.25;41.65
19096;BME280;9680;52.520;13.332;2022-07-23T13:14:26;101435.97;;;26.07;40.97
19096;BME280;9680;52.520;13.332;2022-07-23T13:16:53;101421.56;;;25.70;41.71
19096;BME280;9680;52.520;13.332;2022-07-23T13:19:19;101420.00;;;25.67;42.33
19096;BME280;9680;52.520;13.332;2022-07-23T13:21:47;101420.72;;;25.79;42.10
19096;BME280;9680;52.520;13.332;2022-07-23T13:24:13;101429.00;;;25.86;42.15
19096;BME280;9680;52.520;13.332;2022-07-23T13:26:39;101424.50;;;25.57;42.35
19096;BME280;9680;52.520;13.332;2022-07-23T13:29:06;101415.97;;;25.53;43.23
19096;BME280;9680;52.520;13.332;2022-07-23T13:31:32;101418.50;;;25.65;43.23
19096;BME280;9680;52.520;13.332;2022-07-23T13:33:58;101431.09;;;25.72;43.34
19096;BME280;9680;52.520;13.332;2022-07-23T13:36:23;101416.03;;;26.01;42.80
19096;BME280;9680;52.520;13.332;2022-07-23T13:38:49;101414.13;;;26.41;42.09
19096;BME280;9680;52.520;13.332;2022-07-23T13:41:16;101416.38;;;26.73;40.95
19096;BME280;9680;52.520;13.332;2022-07-23T13:43:42;101418.16;;;26.83;41.04
19096;BME280;9680;52.520;13.332;2022-07-23T13:46:07;101413.09;;;26.80;39.68